Time;durP1;ratioP1;P1;durP2;ratioP2;P2;SDS_P1;SDS_P2;PMS_P1;PMS_P2;Temp;Humidity;BMP_temperature;BMP_pressure;BME280_temperature;BME280_humidity;BME280_pressure;Samples;Min_cycle;Max_cycle;Signal;HPM_P1;HPM_P2
2023/12/13 00:00:37;;;;;;;;;;;21.80;39.10;;;;;;5036400;28;19925;-55
2023/12/13 00:03:04;;;;;;;;;;;21.80;39.10;;;;;;5035972;28;20337;-55
2023/12/13 00:05:31;;;;;;;;;;;21.80;39.10;;;;;;5036130;28;20375;-55
2023/12/13 00:07:58;;;;;;;;;;;21.80;39.10;;;;;;5035957;28;20522;-54
2023/12/13 00:10:26;;;;;;;;;;;21.80;39.10;;;;;;5036511;28;19925;-50
2023/12/13 00:12:53;;;;;;;;;;;21.80;39.20;;;;;;5035972;28;20363;-55
2023/12/13 00:15:21;;;;;;;;;;;21.80;39.20;;;;;;5018303;28;19999;-53
2023/12/13 00:17:49;;;;;;;;;;;21.80;39.20;;;;;;5036428;28;19925;-55
2023/12/13 00:20:16;;;;;;;;;;;21.80;39.20;;;;;;5036210;28;19935;-51
2023/12/13 00:22:43;;;;;;;;;;;21.80;39.30;;;;;;5035778;28;20379;-55
2023/12/13 00:25:11;;;;;;;;;;;21.80;39.20;;;;;;5018096;28;19931;-56
2023/12/13 00:27:38;;;;;;;;;;;21.80;39.20;;;;;;5015794;28;19976;-57
2023/12/13 00:30:05;;;;;;;;;;;21.80;39.30;;;;;;5016366;28;19932;-54
2023/12/13 00:32:33;;;;;;;;;;;21.80;39.20;;;;;;5000253;28;19925;-55
2023/12/13 00:35:00;;;;;;;;;;;21.80;39.20;;;;;;5015635;28;19957;-54
2023/12/13 00:37:27;;;;;;;;;;;21.80;39.10;;;;;;5015968;28;19930;-54
2023/12/13 00:39:54;;;;;;;;;;;21.80;39.10;;;;;;5016045;28;20286;-50
2023/12/13 00:42:21;;;;;;;;;;;21.80;39.10;;;;;;5015698;28;19929;-51
2023/12/13 00:44:49;;;;;;;;;;;21.80;39.10;;;;;;5015894;28;19925;-52
2023/12/13 00:47:16;;;;;;;;;;;21.80;39.10;;;;;;5015889;28;19925;-50
2023/12/13 00:49:43;;;;;;;;;;;21.80;39.10;;;;;;5015884;28;19926;-52
2023/12/13 00:52:10;;;;;;;;;;;21.80;39.10;;;;;;5015975;28;20280;-52
2023/12/13 00:54:37;;;;;;;;;;;21.80;39.10;;;;;;5015305;28;20354;-52
2023/12/13 00:57:06;;;;;;;;;;;21.80;39.10;;;;;;5015635;28;19979;-51
2023/12/13 00:59:33;;;;;;;;;;;21.80;39.10;;;;;;5015628;28;20001;-54
2023/12/13 01:02:00;;;;;;;;;;;21.80;39.10;;;;;;5015688;28;19989;-52
2023/12/13 01:04:27;;;;;;;;;;;21.80;39.10;;;;;;5015726;28;19931;-52
2023/12/13 01:06:55;;;;;;;;;;;21.80;39.10;;;;;;5015325;28;20028;-53
2023/12/13 01:09:22;;;;;;;;;;;21.80;39.10;;;;;;5015653;28;19926;-53
2023/12/13 01:11:49;;;;;;;;;;;21.80;39.10;;;;;;5014590;28;19925;-52
2023/12/13 01:14:16;;;;;;;;;;;21.80;39.10;;;;;;5015166;28;19972;-54
2023/12/13 01:16:43;;;;;;;;;;;21.80;39.10;;;;;;5015483;28;20364;-53
2023/12/13 01:19:10;;;;;;;;;;;21.80;39.10;;;;;;5015140;28;19926;-51
2023/12/13 01:21:37;;;;;;;;;;;21.80;39.10;;;;;;5015687;28;19967;-53
2023/12/13 01:24:04;;;;;;;;;;;21.80;39.10;;;;;;5014925;28;19930;-51
2023/12/13 01:26:31;;;;;;;;;;;21.80;39.10;;;;;;5014853;28;19979;-54
2023/12/13 01:28:58;;;;;;;;;;;21.70;39.10;;;;;;5015172;28;19925;-53
2023/12/13 01:31:25;;;;;;;;;;;21.80;39.20;;;;;;5014886;28;19980;-54
2023/12/13 01:33:52;;;;;;;;;;;21.80;39.20;;;;;;5015214;28;20330;-53
2023/12/13 01:36:20;;;;;;;;;;;21.70;39.10;;;;;;5015110;28;19932;-53
2023/12/13 01:38:47;;;;;;;;;;;21.80;39.20;;;;;;5014824;28;20465;-52
2023/12/13 01:41:15;;;;;;;;;;;21.70;39.20;;;;;;5014667;28;20383;-53
2023/12/13 01:43:42;;;;;;;;;;;21.70;39.20;;;;;;5014946;28;19926;-53
2023/12/13 01:46:10;;;;;;;;;;;21.70;39.20;;;;;;5014793;28;19969;-51
2023/12/13 01:48:38;;;;;;;;;;;21.70;39.20;;;;;;5014492;28;19976;-50
2023/12/13 01:51:06;;;;;;;;;;;21.70;39.20;;;;;;5014728;28;20291;-53
2023/12/13 01:53:34;;;;;;;;;;;21.70;39.20;;;;;;5014792;28;19926;-53
2023/12/13 01:56:05;;;;;;;;;;;21.70;39.20;;;;;;5013673;28;20258;-53
2023/12/13 01:58:32;;;;;;;;;;;21.70;39.20;;;;;;5014314;28;19979;-54
2023/12/13 02:00:59;;;;;;;;;;;21.70;39.10;;;;;;5014324;28;19925;-53
2023/12/13 02:03:26;;;;;;;;;;;21.70;39.10;;;;;;5014704;28;19930;-50
2023/12/13 02:05:53;;;;;;;;;;;21.70;39.10;;;;;;5014491;28;20052;-55
2023/12/13 02:08:22;;;;;;;;;;;21.70;39.10;;;;;;5014244;28;19929;-53
2023/12/13 02:10:49;;;;;;;;;;;21.80;39.20;;;;;;5014567;28;19925;-53
2023/12/13 02:13:17;;;;;;;;;;;21.70;39.10;;;;;;5014477;28;20020;-52
2023/12/13 02:15:44;;;;;;;;;;;21.70;39.20;;;;;;5017015;28;20028;-53
2023/12/13 02:18:14;;;;;;;;;;;21.70;39.20;;;;;;5034121;28;19929;-52
2023/12/13 02:20:42;;;;;;;;;;;21.70;39.20;;;;;;5033989;28;20020;-53
2023/12/13 02:23:09;;;;;;;;;;;21.70;39.10;;;;;;5033698;28;19987;-54
2023/12/13 02:25:49;;;;;;;;;;;21.70;39.20;;;;;;5033356;28;19978;-54
2023/12/13 02:28:17;;;;;;;;;;;21.70;39.20;;;;;;5033937;28;19925;-53
2023/12/13 02:30:46;;;;;;;;;;;21.70;39.20;;;;;;5033861;28;19925;-54
2023/12/13 02:33:13;;;;;;;;;;;21.70;39.20;;;;;;5033521;28;19928;-54
2023/12/13 02:35:40;;;;;;;;;;;21.70;39.20;;;;;;5014242;28;20386;-54
2023/12/13 02:38:07;;;;;;;;;;;21.70;39.20;;;;;;5012480;28;19930;-55
2023/12/13 02:40:35;;;;;;;;;;;21.70;39.20;;;;;;5014101;28;19941;-54
2023/12/13 02:43:02;;;;;;;;;;;21.70;39.20;;;;;;5013690;28;19929;-54
2023/12/13 02:45:29;;;;;;;;;;;21.70;39.20;;;;;;5013800;28;19925;-54
2023/12/13 02:47:56;;;;;;;;;;;21.60;39.20;;;;;;5013847;28;19983;-55
2023/12/13 02:50:23;;;;;;;;;;;21.70;39.20;;;;;;5013945;28;19925;-53
2023/12/13 02:52:50;;;;;;;;;;;21.70;39.20;;;;;;5013990;28;19925;-55
2023/12/13 02:55:17;;;;;;;;;;;21.70;39.20;;;;;;5013581;28;19925;-54
2023/12/13 02:57:45;;;;;;;;;;;21.70;39.30;;;;;;5013595;28;19992;-54
2023/12/13 03:00:12;;;;;;;;;;;21.70;39.30;;;;;;5013822;28;19983;-53
2023/12/13 03:02:39;;;;;;;;;;;21.60;39.30;;;;;;5013452;28;19926;-54
2023/12/13 03:05:07;;;;;;;;;;;21.60;39.30;;;;;;5013515;28;19932;-54
2023/12/13 03:07:35;;;;;;;;;;;21.60;39.30;;;;;;5011615;28;19930;-56
2023/12/13 03:10:02;;;;;;;;;;;21.60;39.30;;;;;;4995404;28;20405;-52
2023/12/13 03:12:29;;;;;;;;;;;21.70;39.30;;;;;;5011828;28;19930;-55
2023/12/13 03:14:56;;;;;;;;;;;21.70;39.40;;;;;;5018697;28;19925;-54
2023/12/13 03:17:23;;;;;;;;;;;21.70;39.30;;;;;;5033406;28;19972;-54
2023/12/13 03:19:50;;;;;;;;;;;21.60;39.20;;;;;;5028131;28;19972;-54
2023/12/13 03:22:18;;;;;;;;;;;21.70;39.20;;;;;;5019038;28;20314;-55
2023/12/13 03:24:45;;;;;;;;;;;21.70;39.20;;;;;;5017921;28;20417;-54
2023/12/13 03:27:12;;;;;;;;;;;21.70;39.20;;;;;;5013321;28;19925;-55
2023/12/13 03:29:39;;;;;;;;;;;21.70;39.20;;;;;;5011465;28;20024;-51
2023/12/13 03:32:06;;;;;;;;;;;21.60;39.20;;;;;;5002212;28;19933;-55
2023/12/13 03:34:33;;;;;;;;;;;21.70;39.20;;;;;;4996173;28;19929;-52
2023/12/13 03:37:01;;;;;;;;;;;21.70;39.30;;;;;;5001573;28;20335;-48
2023/12/13 03:39:28;;;;;;;;;;;21.70;39.20;;;;;;4997317;28;20005;-48
2023/12/13 03:41:55;;;;;;;;;;;21.70;39.20;;;;;;4997454;28;19957;-48
2023/12/13 03:44:23;;;;;;;;;;;21.70;39.20;;;;;;4997205;28;19942;-48
2023/12/13 03:46:50;;;;;;;;;;;21.70;39.20;;;;;;5034019;28;19956;-51
2023/12/13 03:49:17;;;;;;;;;;;21.70;39.20;;;;;;5036258;28;20367;-49
2023/12/13 03:51:46;;;;;;;;;;;21.70;39.30;;;;;;5036869;28;19925;-49
2023/12/13 03:54:13;;;;;;;;;;;21.60;39.20;;;;;;5036352;28;19925;-48
2023/12/13 03:56:41;;;;;;;;;;;21.60;39.20;;;;;;5031230;28;20330;-47
2023/12/13 03:59:08;;;;;;;;;;;21.60;39.20;;;;;;4993570;28;19996;-50
2023/12/13 04:01:35;;;;;;;;;;;21.60;39.20;;;;;;5006721;28;20319;-47
2023/12/13 04:04:02;;;;;;;;;;;21.60;39.20;;;;;;5011757;28;20264;-48
2023/12/13 04:06:29;;;;;;;;;;;21.70;39.30;;;;;;5016355;28;20108;-47
2023/12/13 04:08:57;;;;;;;;;;;21.60;39.20;;;;;;5016683;28;19967;-51
2023/12/13 04:11:23;;;;;;;;;;;21.70;39.30;;;;;;5012760;28;19976;-53
2023/12/13 04:13:51;;;;;;;;;;;21.60;39.30;;;;;;5013156;28;19926;-55
2023/12/13 04:16:18;;;;;;;;;;;21.60;39.30;;;;;;5009790;28;19925;-55
2023/12/13 04:18:45;;;;;;;;;;;21.60;39.30;;;;;;5016554;28;19927;-55
2023/12/13 04:21:12;;;;;;;;;;;21.60;39.30;;;;;;5016533;28;20020;-54
2023/12/13 04:23:39;;;;;;;;;;;21.60;39.30;;;;;;5016187;28;19933;-54
2023/12/13 04:26:06;;;;;;;;;;;21.60;39.30;;;;;;5015879;28;20375;-53
2023/12/13 04:28:34;;;;;;;;;;;21.60;39.40;;;;;;5016190;28;19926;-54
2023/12/13 04:31:01;;;;;;;;;;;21.60;39.40;;;;;;5016222;28;19925;-53
2023/12/13 04:33:28;;;;;;;;;;;21.60;39.40;;;;;;5015974;28;19979;-53
2023/12/13 04:35:58;;;;;;;;;;;21.60;39.40;;;;;;5015959;28;19926;-54
2023/12/13 04:38:25;;;;;;;;;;;21.60;39.30;;;;;;4998901;28;19931;-52
2023/12/13 04:40:52;;;;;;;;;;;21.60;39.40;;;;;;5015765;28;19929;-50
2023/12/13 04:43:20;;;;;;;;;;;21.70;39.50;;;;;;5016098;28;19965;-51
2023/12/13 04:45:47;;;;;;;;;;;21.70;39.50;;;;;;5014199;28;19926;-51
2023/12/13 04:50:41;;;;;;;;;;;21.70;39.50;;;;;;5015850;28;19926;-50
2023/12/13 04:53:08;;;;;;;;;;;21.70;39.50;;;;;;5015566;28;19949;-52
2023/12/13 04:55:35;;;;;;;;;;;21.80;39.60;;;;;;5015601;28;19969;-52
2023/12/13 04:58:03;;;;;;;;;;;21.70;39.50;;;;;;4998141;28;19925;-49
2023/12/13 05:00:29;;;;;;;;;;;21.80;39.60;;;;;;5015471;28;20386;-50
2023/12/13 05:02:57;;;;;;;;;;;21.80;39.70;;;;;;5015860;28;19930;-50
2023/12/13 05:05:24;;;;;;;;;;;21.80;39.70;;;;;;5015155;28;19972;-52
2023/12/13 05:07:51;;;;;;;;;;;21.80;39.80;;;;;;4981392;28;20291;-52
2023/12/13 05:10:18;;;;;;;;;;;21.80;39.80;;;;;;5015138;28;19932;-51
2023/12/13 05:12:45;;;;;;;;;;;21.80;39.90;;;;;;5015684;28;19964;-47
2023/12/13 05:15:12;;;;;;;;;;;21.80;39.90;;;;;;5015538;28;19925;-52
2023/12/13 05:17:39;;;;;;;;;;;21.80;39.90;;;;;;5015269;28;19929;-52
2023/12/13 05:20:06;;;;;;;;;;;21.80;39.90;;;;;;5011532;28;19926;-48
2023/12/13 05:22:34;;;;;;;;;;;21.80;39.90;;;;;;5001929;28;20283;-52
2023/12/13 05:25:01;;;;;;;;;;;21.80;39.90;;;;;;4995177;28;19932;-48
2023/12/13 05:27:28;;;;;;;;;;;21.80;39.90;;;;;;5003580;28;19932;-48
2023/12/13 05:29:55;;;;;;;;;;;21.80;40.00;;;;;;5006796;28;20368;-48
2023/12/13 05:32:22;;;;;;;;;;;21.80;40.00;;;;;;5003808;28;19991;-52
2023/12/13 05:34:49;;;;;;;;;;;21.80;40.00;;;;;;4999142;28;19937;-49
2023/12/13 05:37:16;;;;;;;;;;;21.80;40.00;;;;;;5005747;28;19925;-48
2023/12/13 05:39:43;;;;;;;;;;;21.80;40.00;;;;;;5014079;28;19925;-50
2023/12/13 05:42:10;;;;;;;;;;;21.90;40.10;;;;;;5002224;28;19926;-53
2023/12/13 05:44:37;;;;;;;;;;;21.90;40.10;;;;;;5005389;28;20326;-50
2023/12/13 05:47:04;;;;;;;;;;;21.90;40.10;;;;;;5007398;28;19932;-49
2023/12/13 05:49:31;;;;;;;;;;;21.90;40.10;;;;;;4995103;28;20368;-49
2023/12/13 05:51:58;;;;;;;;;;;21.90;40.10;;;;;;4994995;28;20347;-48
2023/12/13 05:54:25;;;;;;;;;;;21.90;40.10;;;;;;5012211;28;19975;-48
2023/12/13 05:56:53;;;;;;;;;;;22.00;40.20;;;;;;5012565;28;19926;-51
2023/12/13 05:59:20;;;;;;;;;;;22.00;40.20;;;;;;5012884;28;19973;-49
2023/12/13 06:01:47;;;;;;;;;;;22.00;40.20;;;;;;5010714;28;19925;-49
2023/12/13 06:04:14;;;;;;;;;;;22.00;40.20;;;;;;5011258;28;19933;-48
2023/12/13 06:06:44;;;;;;;;;;;22.00;40.20;;;;;;5013070;28;19932;-49
2023/12/13 06:09:12;;;;;;;;;;;22.00;40.20;;;;;;5013429;28;20379;-51
2023/12/13 06:11:39;;;;;;;;;;;22.00;40.20;;;;;;5002893;28;19972;-52
2023/12/13 06:14:07;;;;;;;;;;;22.00;40.20;;;;;;5007053;28;20434;-49
2023/12/13 06:16:34;;;;;;;;;;;22.00;40.60;;;;;;5011047;28;19932;-51
2023/12/13 06:19:01;;;;;;;;;;;22.10;41.00;;;;;;5000150;28;19934;-56
2023/12/13 06:21:29;;;;;;;;;;;22.10;41.30;;;;;;5008811;28;19934;-57
2023/12/13 06:23:56;;;;;;;;;;;22.20;41.40;;;;;;5001780;28;19925;-56
2023/12/13 06:26:23;;;;;;;;;;;22.20;41.40;;;;;;5008105;28;20344;-58
2023/12/13 06:28:50;;;;;;;;;;;22.20;41.50;;;;;;4985425;28;19981;-58
2023/12/13 06:31:18;;;;;;;;;;;22.20;41.60;;;;;;5004975;28;20422;-58
2023/12/13 06:33:45;;;;;;;;;;;22.20;41.70;;;;;;5004887;28;20311;-56
2023/12/13 06:36:12;;;;;;;;;;;22.30;42.20;;;;;;5001701;28;19940;-57
2023/12/13 06:38:39;;;;;;;;;;;22.40;42.20;;;;;;4994141;28;20067;-58
2023/12/13 06:41:06;;;;;;;;;;;22.40;42.00;;;;;;4982232;28;19929;-57
2023/12/13 06:43:33;;;;;;;;;;;22.40;41.70;;;;;;5001844;28;19932;-56
2023/12/13 06:46:00;;;;;;;;;;;22.40;41.50;;;;;;5001093;28;20394;-54
2023/12/13 06:48:29;;;;;;;;;;;22.40;41.50;;;;;;5006824;28;19925;-52
2023/12/13 06:50:56;;;;;;;;;;;22.40;41.30;;;;;;4998182;28;20446;-56
2023/12/13 06:53:23;;;;;;;;;;;22.50;41.30;;;;;;4997595;28;19934;-55
2023/12/13 06:55:50;;;;;;;;;;;22.50;41.20;;;;;;5007264;28;19929;-55
2023/12/13 06:58:17;;;;;;;;;;;22.50;41.20;;;;;;5002124;28;20015;-53
2023/12/13 07:00:45;;;;;;;;;;;22.50;41.20;;;;;;5002516;28;20512;-52
2023/12/13 07:03:13;;;;;;;;;;;22.60;41.30;;;;;;5001359;28;20463;-55
2023/12/13 07:05:40;;;;;;;;;;;22.60;41.30;;;;;;4999198;28;19933;-58
2023/12/13 07:08:08;;;;;;;;;;;22.60;41.50;;;;;;4983949;28;19940;-58
2023/12/13 07:10:35;;;;;;;;;;;22.60;41.60;;;;;;5005716;28;19940;-55
2023/12/13 07:13:03;;;;;;;;;;;22.70;41.90;;;;;;5002196;28;19941;-56
2023/12/13 07:15:30;;;;;;;;;;;22.70;41.90;;;;;;5003129;28;19991;-53
2023/12/13 07:17:57;;;;;;;;;;;22.70;42.00;;;;;;5005522;28;20013;-58
2023/12/13 07:20:24;;;;;;;;;;;22.70;42.00;;;;;;5003357;28;19932;-59
2023/12/13 07:22:51;;;;;;;;;;;22.70;42.20;;;;;;5001393;28;19926;-60
2023/12/13 07:25:18;;;;;;;;;;;22.70;42.30;;;;;;4976278;28;19933;-57
2023/12/13 07:27:46;;;;;;;;;;;22.80;42.30;;;;;;4991186;28;20048;-57
2023/12/13 07:30:13;;;;;;;;;;;22.80;42.20;;;;;;4999034;28;20007;-54
2023/12/13 07:32:41;;;;;;;;;;;22.80;42.10;;;;;;5001960;28;19933;-56
2023/12/13 07:35:08;;;;;;;;;;;22.80;42.00;;;;;;4995352;28;19933;-57
2023/12/13 07:37:36;;;;;;;;;;;22.80;42.00;;;;;;4978221;28;19967;-56
2023/12/13 07:40:06;;;;;;;;;;;22.90;42.00;;;;;;4999595;28;19940;-58
2023/12/13 07:42:33;;;;;;;;;;;22.80;41.90;;;;;;4997270;28;20302;-57
2023/12/13 07:45:02;;;;;;;;;;;22.90;42.00;;;;;;4997926;28;19940;-56
2023/12/13 07:47:29;;;;;;;;;;;22.90;41.90;;;;;;4993907;28;19933;-56
2023/12/13 07:49:56;;;;;;;;;;;22.90;41.90;;;;;;4995778;28;19933;-57
2023/12/13 07:52:24;;;;;;;;;;;22.90;41.80;;;;;;4999821;28;20007;-55
2023/12/13 07:54:52;;;;;;;;;;;22.90;41.80;;;;;;4998797;28;20338;-54
2023/12/13 07:57:21;;;;;;;;;;;22.80;41.70;;;;;;5001428;28;20028;-54
2023/12/13 07:59:48;;;;;;;;;;;22.80;41.70;;;;;;5007399;28;19971;-55
2023/12/13 08:02:15;;;;;;;;;;;22.90;41.80;;;;;;5003850;28;19937;-54
2023/12/13 08:04:42;;;;;;;;;;;22.80;41.60;;;;;;5001223;28;19926;-54
2023/12/13 08:07:10;;;;;;;;;;;22.90;41.80;;;;;;4999103;28;19937;-55
2023/12/13 08:09:37;;;;;;;;;;;22.90;41.80;;;;;;5001935;28;19941;-53
2023/12/13 08:12:05;;;;;;;;;;;22.90;41.80;;;;;;5004391;28;20383;-57
2023/12/13 08:14:33;;;;;;;;;;;23.00;41.90;;;;;;5000665;28;19926;-53
2023/12/13 08:17:08;;;;;;;;;;;23.00;41.90;;;;;;5004957;28;20363;-52
2023/12/13 08:19:36;;;;;;;;;;;23.00;42.00;;;;;;5000732;28;19929;-53
2023/12/13 08:22:03;;;;;;;;;;;23.10;42.10;;;;;;5004318;28;20398;-58
2023/12/13 08:24:30;;;;;;;;;;;23.10;42.60;;;;;;5005047;28;19953;-57
2023/12/13 08:26:57;;;;;;;;;;;23.10;42.00;;;;;;5002270;28;19929;-57
2023/12/13 08:29:24;;;;;;;;;;;23.10;42.00;;;;;;4999727;28;19930;-58
2023/12/13 08:31:51;;;;;;;;;;;23.10;42.00;;;;;;4981527;28;19929;-58
2023/12/13 08:34:18;;;;;;;;;;;23.10;42.00;;;;;;5004314;28;19925;-56
2023/12/13 08:36:46;;;;;;;;;;;23.20;42.00;;;;;;5005678;28;19934;-54
2023/12/13 08:39:14;;;;;;;;;;;23.20;42.00;;;;;;5003955;28;19926;-58
2023/12/13 08:41:41;;;;;;;;;;;23.30;42.00;;;;;;5004043;28;19995;-55
2023/12/13 08:44:08;;;;;;;;;;;23.20;42.20;;;;;;4988458;28;19932;-58
2023/12/13 08:46:35;;;;;;;;;;;23.30;42.60;;;;;;5003502;28;19925;-56
2023/12/13 08:49:02;;;;;;;;;;;23.30;43.00;;;;;;5001050;28;19933;-56
2023/12/13 08:51:29;;;;;;;;;;;23.30;43.30;;;;;;5008253;28;19944;-54
2023/12/13 08:53:56;;;;;;;;;;;23.30;43.50;;;;;;4999705;28;19929;-57
2023/12/13 08:56:24;;;;;;;;;;;23.30;43.40;;;;;;4987743;28;20414;-55
2023/12/13 08:58:51;;;;;;;;;;;23.30;43.40;;;;;;5000974;28;19981;-57
2023/12/13 09:01:18;;;;;;;;;;;23.30;43.50;;;;;;5003436;28;19933;-54
2023/12/13 09:03:53;;;;;;;;;;;23.30;43.70;;;;;;5003867;28;19956;-57
2023/12/13 09:06:20;;;;;;;;;;;23.40;43.70;;;;;;5003363;28;19934;-55
2023/12/13 09:08:47;;;;;;;;;;;23.40;43.70;;;;;;5002843;28;19935;-55
2023/12/13 09:11:14;;;;;;;;;;;23.40;43.90;;;;;;5000494;28;20280;-52
2023/12/13 09:13:41;;;;;;;;;;;23.30;43.30;;;;;;4999333;28;19934;-57
2023/12/13 09:16:08;;;;;;;;;;;23.30;43.10;;;;;;5003893;28;19925;-58
2023/12/13 09:18:35;;;;;;;;;;;23.30;43.30;;;;;;5003672;28;19973;-57
2023/12/13 09:21:03;;;;;;;;;;;23.40;43.20;;;;;;5005673;28;19926;-55
2023/12/13 09:23:35;;;;;;;;;;;23.40;42.90;;;;;;4998035;28;19934;-59
2023/12/13 09:26:05;;;;;;;;;;;23.40;42.60;;;;;;4984432;28;19930;-56
2023/12/13 09:28:35;;;;;;;;;;;23.40;42.40;;;;;;5001436;28;19929;-57
2023/12/13 09:31:04;;;;;;;;;;;23.40;42.40;;;;;;4997510;28;19977;-57
2023/12/13 09:33:31;;;;;;;;;;;23.40;42.30;;;;;;5000804;28;19933;-56
2023/12/13 09:35:58;;;;;;;;;;;23.40;42.10;;;;;;5005651;28;20383;-57
2023/12/13 09:38:25;;;;;;;;;;;23.40;42.20;;;;;;5002182;28;19971;-54
2023/12/13 09:40:52;;;;;;;;;;;23.40;42.20;;;;;;4985130;28;20256;-55
2023/12/13 09:43:20;;;;;;;;;;;23.50;42.20;;;;;;5006743;28;19972;-57
2023/12/13 09:45:49;;;;;;;;;;;23.50;42.20;;;;;;5004177;28;19934;-62
2023/12/13 09:48:21;;;;;;;;;;;23.50;42.30;;;;;;5000269;28;19933;-56
2023/12/13 09:50:51;;;;;;;;;;;23.50;42.90;;;;;;5000796;28;19957;-57
2023/12/13 09:53:20;;;;;;;;;;;23.50;43.30;;;;;;5000297;28;20020;-56
2023/12/13 09:55:47;;;;;;;;;;;23.60;43.80;;;;;;4998837;28;20012;-57
2023/12/13 09:58:14;;;;;;;;;;;23.60;44.10;;;;;;5000809;28;19942;-59
2023/12/13 10:00:43;;;;;;;;;;;23.60;44.10;;;;;;4999762;28;19929;-57
2023/12/13 10:03:10;;;;;;;;;;;23.60;44.20;;;;;;4995443;28;19937;-57
2023/12/13 10:05:39;;;;;;;;;;;23.70;44.30;;;;;;4998991;28;19948;-58
2023/12/13 10:08:09;;;;;;;;;;;23.70;44.20;;;;;;4997187;28;19941;-55
2023/12/13 10:10:36;;;;;;;;;;;23.70;44.30;;;;;;4995941;28;20024;-54
2023/12/13 10:13:03;;;;;;;;;;;23.70;44.30;;;;;;4998537;28;19940;-55
2023/12/13 10:15:31;;;;;;;;;;;23.70;44.10;;;;;;5001856;28;19941;-56
2023/12/13 10:17:59;;;;;;;;;;;23.80;44.00;;;;;;5000365;28;19965;-56
2023/12/13 10:20:26;;;;;;;;;;;23.80;43.90;;;;;;4999029;28;20283;-57
2023/12/13 10:22:54;;;;;;;;;;;23.90;43.80;;;;;;5000652;28;20342;-54
2023/12/13 10:25:21;;;;;;;;;;;23.90;43.70;;;;;;4996808;28;19957;-60
2023/12/13 10:27:50;;;;;;;;;;;23.80;43.60;;;;;;4994176;28;19938;-57
2023/12/13 10:30:18;;;;;;;;;;;23.90;43.60;;;;;;5000939;28;19961;-57
2023/12/13 10:32:45;;;;;;;;;;;23.90;43.50;;;;;;5003426;28;19934;-56
2023/12/13 10:35:12;;;;;;;;;;;23.90;43.40;;;;;;5002605;28;19940;-57
2023/12/13 10:37:40;;;;;;;;;;;24.00;43.40;;;;;;5000085;28;19940;-54
2023/12/13 10:40:11;;;;;;;;;;;24.00;43.20;;;;;;5000666;28;19961;-60
2023/12/13 10:42:38;;;;;;;;;;;24.00;43.20;;;;;;4996999;28;20299;-57
2023/12/13 10:45:08;;;;;;;;;;;24.10;43.20;;;;;;4997528;28;19948;-55
2023/12/13 10:47:36;;;;;;;;;;;24.10;43.10;;;;;;4996602;28;19956;-55
2023/12/13 10:50:03;;;;;;;;;;;24.10;43.10;;;;;;4997060;28;19933;-56
2023/12/13 10:52:32;;;;;;;;;;;24.10;42.90;;;;;;4998313;28;20019;-56
2023/12/13 10:54:59;;;;;;;;;;;24.10;42.90;;;;;;4998536;28;19926;-55
2023/12/13 10:57:26;;;;;;;;;;;24.20;42.80;;;;;;4994682;28;19933;-55
2023/12/13 10:59:54;;;;;;;;;;;24.10;42.60;;;;;;4997673;28;19977;-51
2023/12/13 11:02:21;;;;;;;;;;;24.10;42.50;;;;;;4999201;28;19937;-51
2023/12/13 11:04:48;;;;;;;;;;;24.10;42.30;;;;;;4998712;28;20060;-52
2023/12/13 11:07:16;;;;;;;;;;;24.20;41.80;;;;;;5004032;28;19956;-51
2023/12/13 11:09:53;;;;;;;;;;;24.20;41.40;;;;;;4998363;28;19972;-57
2023/12/13 11:12:20;;;;;;;;;;;24.30;41.20;;;;;;5000074;28;19987;-57
2023/12/13 11:14:48;;;;;;;;;;;24.30;40.90;;;;;;5000377;28;20356;-57
2023/12/13 11:17:16;;;;;;;;;;;24.30;41.00;;;;;;4999458;28;19925;-56
2023/12/13 11:19:44;;;;;;;;;;;24.30;41.00;;;;;;4998434;28;19926;-56
2023/12/13 11:22:14;;;;;;;;;;;24.20;40.90;;;;;;4931661;28;2030397;-57
2023/12/13 11:24:41;;;;;;;;;;;24.20;41.00;;;;;;5001978;28;20021;-57
2023/12/13 11:27:10;;;;;;;;;;;24.20;40.90;;;;;;5001028;28;19976;-58
2023/12/13 11:29:37;;;;;;;;;;;24.30;40.90;;;;;;5000274;28;19929;-55
2023/12/13 11:32:04;;;;;;;;;;;24.30;40.90;;;;;;4986860;28;20338;-58
2023/12/13 11:34:39;;;;;;;;;;;24.30;40.80;;;;;;5005378;28;19980;-58
2023/12/13 11:37:06;;;;;;;;;;;24.30;40.70;;;;;;4994760;28;20391;-56
2023/12/13 11:39:34;;;;;;;;;;;24.40;40.60;;;;;;5003469;28;19925;-56
2023/12/13 11:42:02;;;;;;;;;;;24.40;40.80;;;;;;4999011;28;20012;-58
2023/12/13 11:44:30;;;;;;;;;;;24.50;41.60;;;;;;4999453;28;20015;-57
2023/12/13 11:47:00;;;;;;;;;;;24.50;41.50;;;;;;5004268;28;19979;-56
2023/12/13 11:49:28;;;;;;;;;;;24.60;41.80;;;;;;4999197;28;19934;-56
2023/12/13 11:51:56;;;;;;;;;;;24.70;42.00;;;;;;5000638;28;20345;-54
2023/12/13 11:54:23;;;;;;;;;;;24.70;41.80;;;;;;4996974;28;20015;-58
2023/12/13 11:56:51;;;;;;;;;;;24.80;41.80;;;;;;5003557;28;19937;-58
2023/12/13 11:59:21;;;;;;;;;;;24.90;41.90;;;;;;5003041;28;19964;-58
2023/12/13 12:01:48;;;;;;;;;;;24.90;41.70;;;;;;5004141;28;20302;-58
2023/12/13 12:04:18;;;;;;;;;;;25.00;41.40;;;;;;5003749;28;19972;-56
2023/12/13 12:06:47;;;;;;;;;;;25.00;41.10;;;;;;5005052;28;19933;-59
2023/12/13 12:09:21;;;;;;;;;;;25.10;41.10;;;;;;4998721;28;20422;-59
2023/12/13 12:11:53;;;;;;;;;;;25.10;41.10;;;;;;5006706;28;19944;-59
2023/12/13 12:14:25;;;;;;;;;;;25.20;40.70;;;;;;5002378;28;20109;-59
2023/12/13 12:16:52;;;;;;;;;;;25.30;41.00;;;;;;4997598;28;20176;-58
2023/12/13 12:19:19;;;;;;;;;;;25.30;40.80;;;;;;4994593;28;19941;-59
2023/12/13 12:21:47;;;;;;;;;;;25.40;40.80;;;;;;4998978;28;19933;-61
2023/12/13 12:24:14;;;;;;;;;;;25.40;40.90;;;;;;4981960;28;19940;-61
2023/12/13 12:26:41;;;;;;;;;;;25.50;40.90;;;;;;5002956;28;19944;-60
2023/12/13 12:29:08;;;;;;;;;;;25.50;40.80;;;;;;4998717;28;19940;-62
2023/12/13 12:31:36;;;;;;;;;;;25.60;40.60;;;;;;4999528;28;20579;-58
2023/12/13 12:34:04;;;;;;;;;;;25.60;40.80;;;;;;4978901;28;19933;-60
2023/12/13 12:36:31;;;;;;;;;;;25.70;40.90;;;;;;4996281;28;19933;-60
2023/12/13 12:38:58;;;;;;;;;;;25.70;40.60;;;;;;5000588;28;19937;-60
2023/12/13 12:41:28;;;;;;;;;;;25.80;41.00;;;;;;4991683;28;20399;-58
2023/12/13 12:43:55;;;;;;;;;;;25.80;41.00;;;;;;4992688;28;19933;-61
2023/12/13 12:46:22;;;;;;;;;;;25.80;40.60;;;;;;5001566;28;19990;-60
2023/12/13 12:48:50;;;;;;;;;;;25.80;41.00;;;;;;4996816;28;19940;-59
2023/12/13 12:51:17;;;;;;;;;;;25.80;40.60;;;;;;4997494;28;19933;-58
2023/12/13 12:53:45;;;;;;;;;;;25.90;40.70;;;;;;4999789;28;19933;-58
2023/12/13 12:56:13;;;;;;;;;;;25.90;40.20;;;;;;5000606;28;19964;-57
2023/12/13 12:58:40;;;;;;;;;;;25.90;39.90;;;;;;4996840;28;19972;-59
2023/12/13 13:01:07;;;;;;;;;;;25.90;39.90;;;;;;4994776;28;19933;-61
2023/12/13 13:03:35;;;;;;;;;;;25.90;40.20;;;;;;4993508;28;19933;-61
2023/12/13 13:06:04;;;;;;;;;;;25.90;40.10;;;;;;4994209;28;19940;-60
2023/12/13 13:08:32;;;;;;;;;;;25.80;39.80;;;;;;4994282;28;21281;-58
2023/12/13 13:10:59;;;;;;;;;;;25.80;39.80;;;;;;4995854;28;20377;-60
2023/12/13 13:13:27;;;;;;;;;;;25.80;39.70;;;;;;4998689;28;20027;-60
2023/12/13 13:15:54;;;;;;;;;;;25.80;39.70;;;;;;5000936;28;20834;-59
2023/12/13 13:18:21;;;;;;;;;;;25.80;39.60;;;;;;4998653;28;20032;-61
2023/12/13 13:20:49;;;;;;;;;;;25.80;39.40;;;;;;4963051;28;19937;-62
2023/12/13 13:23:16;;;;;;;;;;;25.80;39.20;;;;;;4956798;28;19933;-60
2023/12/13 13:25:43;;;;;;;;;;;25.90;39.30;;;;;;4980517;28;19983;-59
2023/12/13 13:28:10;;;;;;;;;;;25.90;39.20;;;;;;4976318;28;19940;-59
2023/12/13 13:30:37;;;;;;;;;;;25.90;39.10;;;;;;4985363;28;20056;-57
2023/12/13 13:33:05;;;;;;;;;;;25.90;39.10;;;;;;4993896;28;19973;-61
2023/12/13 13:35:32;;;;;;;;;;;25.90;39.00;;;;;;5007839;28;19929;-61
2023/12/13 13:37:59;;;;;;;;;;;25.90;38.90;;;;;;4985639;28;19933;-57
2023/12/13 13:40:26;;;;;;;;;;;25.90;38.90;;;;;;4998512;28;19996;-63
2023/12/13 13:42:54;;;;;;;;;;;25.90;38.90;;;;;;5001689;28;20030;-60
2023/12/13 13:45:21;;;;;;;;;;;25.90;39.00;;;;;;5007909;28;19975;-58
2023/12/13 13:47:48;;;;;;;;;;;25.90;38.90;;;;;;5004232;28;20361;-61
2023/12/13 13:50:15;;;;;;;;;;;25.90;38.90;;;;;;5000975;28;19930;-60
2023/12/13 13:52:43;;;;;;;;;;;25.90;39.00;;;;;;5008559;28;19934;-58
2023/12/13 13:55:10;;;;;;;;;;;26.00;39.00;;;;;;4985691;28;20020;-55
2023/12/13 13:57:38;;;;;;;;;;;25.90;38.90;;;;;;5009886;28;19972;-58
2023/12/13 14:00:10;;;;;;;;;;;26.00;39.00;;;;;;5011017;28;19938;-57
2023/12/13 14:02:37;;;;;;;;;;;25.90;38.90;;;;;;5003910;28;19933;-57
2023/12/13 14:05:05;;;;;;;;;;;25.90;38.90;;;;;;5006657;28;20018;-58
2023/12/13 14:07:32;;;;;;;;;;;26.00;39.00;;;;;;5003380;28;20469;-56
2023/12/13 14:10:00;;;;;;;;;;;25.90;38.80;;;;;;5003565;28;19925;-57
2023/12/13 14:12:28;;;;;;;;;;;26.00;38.80;;;;;;5001741;28;20284;-54
2023/12/13 14:14:56;;;;;;;;;;;26.00;38.70;;;;;;4999128;28;20044;-59
2023/12/13 14:17:24;;;;;;;;;;;26.00;38.70;;;;;;5000035;28;20032;-57
2023/12/13 14:19:51;;;;;;;;;;;26.00;38.70;;;;;;5003064;28;20025;-60